Preview of NWS' New Version of Forecast
This preview is not operational and should not be used for support decisions.

Terminal Aerodrome Forecast (TAF)

Issued by National Weather Service (NWS)

                            
000
FTUS42 KILM 211720
TAFFLO
TAF
KFLO 211720Z 2118/2218 VRB05KT P6SM SKC
     FM212300 00000KT P6SM SKC
      TEMPO 2208/2212 2SM BR
     FM221500 23004KT P6SM FEW250=